createdAt,value
2023-12-13T00:02:15.020Z,24.83
2023-12-13T00:05:17.208Z,25.40
2023-12-13T00:08:22.490Z,24.75
2023-12-13T00:11:24.953Z,23.75
2023-12-13T00:14:26.910Z,22.88
2023-12-13T00:17:30.102Z,22.52
2023-12-13T00:20:35.795Z,23.57
2023-12-13T00:23:39.509Z,23.60
2023-12-13T00:26:41.763Z,23.95
2023-12-13T00:29:43.994Z,26.23
2023-12-13T00:32:45.974Z,26.25
2023-12-13T00:35:48.078Z,24.57
2023-12-13T00:38:49.857Z,24.35
2023-12-13T00:41:52.203Z,24.55
2023-12-13T00:44:54.714Z,25.75
2023-12-13T00:47:56.825Z,25.13
2023-12-13T00:50:59.580Z,24.63
2023-12-13T00:54:01.528Z,27.27
2023-12-13T00:57:04.068Z,27.25
2023-12-13T01:00:06.947Z,27.02
2023-12-13T01:03:11.670Z,25.77
2023-12-13T01:06:15.218Z,24.47
2023-12-13T01:09:17.119Z,26.08
2023-12-13T01:12:19.109Z,28.25
2023-12-13T01:15:21.005Z,28.42
2023-12-13T01:18:25.746Z,27.73
2023-12-13T01:21:30.440Z,26.83
2023-12-13T01:24:32.893Z,28.15
2023-12-13T01:27:35.218Z,26.67
2023-12-13T01:30:37.659Z,25.90
2023-12-13T01:33:43.275Z,24.92
2023-12-13T01:36:45.216Z,25.30
2023-12-13T01:39:47.294Z,25.33
2023-12-13T01:42:49.775Z,24.95
2023-12-13T01:45:54.278Z,25.00
2023-12-13T01:48:58.689Z,24.10
2023-12-13T01:52:00.939Z,25.07
2023-12-13T01:55:03.393Z,27.63
2023-12-13T01:58:05.920Z,25.80
2023-12-13T02:01:09.898Z,26.05
2023-12-13T02:04:14.986Z,24.88
2023-12-13T02:07:16.978Z,22.07
2023-12-13T02:10:19.087Z,24.42
2023-12-13T02:13:21.118Z,24.38
2023-12-13T02:16:22.985Z,23.65
2023-12-13T02:19:26.302Z,26.13
2023-12-13T02:22:28.467Z,23.47
2023-12-13T02:25:39.439Z,23.33
2023-12-13T02:28:42.787Z,24.42
2023-12-13T02:31:45.743Z,21.70
2023-12-13T02:34:47.680Z,24.23
2023-12-13T02:37:50.725Z,24.30
2023-12-13T02:40:54.618Z,23.13
2023-12-13T02:43:56.836Z,22.95
2023-12-13T02:47:00.273Z,21.98
2023-12-13T02:50:02.340Z,23.08
2023-12-13T02:53:05.226Z,22.20
2023-12-13T02:56:07.890Z,23.02
2023-12-13T02:59:09.851Z,21.00
2023-12-13T03:02:11.997Z,21.55
2023-12-13T03:05:14.186Z,18.67
2023-12-13T03:08:18.556Z,21.20
2023-12-13T03:11:21.757Z,21.98
2023-12-13T03:14:24.247Z,22.25
2023-12-13T03:17:26.224Z,20.77
2023-12-13T03:20:28.531Z,18.90
2023-12-13T03:23:30.565Z,18.27
2023-12-13T03:26:32.713Z,17.60
2023-12-13T03:29:34.795Z,17.50
2023-12-13T03:32:36.636Z,17.50
2023-12-13T03:35:38.542Z,17.25
2023-12-13T03:38:40.695Z,15.93
2023-12-13T03:41:42.500Z,15.60
2023-12-13T03:44:44.445Z,16.00
2023-12-13T03:47:46.909Z,15.50
2023-12-13T03:50:51.621Z,14.60
2023-12-13T03:53:58.996Z,14.57
2023-12-13T03:57:01.691Z,14.52
2023-12-13T04:00:03.843Z,15.30
2023-12-13T04:03:06.305Z,15.63
2023-12-13T04:06:08.749Z,16.52
2023-12-13T04:09:11.189Z,15.53
2023-12-13T04:12:14.394Z,14.45
2023-12-13T04:15:17.781Z,15.43
2023-12-13T04:18:20.078Z,15.38
2023-12-13T04:21:23.314Z,14.00
2023-12-13T04:24:25.349Z,14.73
2023-12-13T04:27:27.747Z,13.50
2023-12-13T04:30:32.375Z,13.02
2023-12-13T04:33:36.467Z,15.10
2023-12-13T04:36:38.676Z,12.23
2023-12-13T04:39:40.731Z,13.93
2023-12-13T04:42:45.031Z,12.80
2023-12-13T04:45:47.288Z,14.25
2023-12-13T04:48:49.567Z,13.73
2023-12-13T04:51:51.731Z,13.60
2023-12-13T04:54:55.347Z,13.63
2023-12-13T04:57:58.644Z,13.30
2023-12-13T05:01:00.767Z,14.15
2023-12-13T05:04:03.263Z,12.35
2023-12-13T05:07:06.890Z,12.77
2023-12-13T05:10:09.243Z,14.20
2023-12-13T05:13:12.907Z,12.85
2023-12-13T05:16:16.246Z,13.43
2023-12-13T05:19:18.454Z,13.20
2023-12-13T05:22:20.390Z,13.32
2023-12-13T05:25:22.494Z,13.33
2023-12-13T05:28:24.633Z,11.60
2023-12-13T05:31:26.586Z,12.52
2023-12-13T05:34:29.351Z,13.50
2023-12-13T05:37:31.603Z,12.73
2023-12-13T05:40:33.670Z,12.40
2023-12-13T05:43:36.875Z,13.05
2023-12-13T05:46:39.104Z,12.43
2023-12-13T05:49:41.295Z,11.32
2023-12-13T05:52:43.522Z,11.60
2023-12-13T05:55:48.390Z,11.90
2023-12-13T05:58:51.882Z,12.07
2023-12-13T06:01:54.141Z,11.35
2023-12-13T06:05:00.014Z,11.40
2023-12-13T06:08:03.727Z,11.35
2023-12-13T06:11:05.877Z,11.00
2023-12-13T06:14:07.984Z,11.80
2023-12-13T06:17:10.359Z,11.02
2023-12-13T06:20:13.222Z,10.30
2023-12-13T06:23:18.318Z,11.57
2023-12-13T06:26:20.996Z,10.33
2023-12-13T06:29:23.694Z,10.07
2023-12-13T06:32:26.470Z,11.05
2023-12-13T06:35:28.782Z,11.65
2023-12-13T06:38:31.263Z,10.32
2023-12-13T06:41:33.783Z,10.63
2023-12-13T06:44:38.490Z,9.52
2023-12-13T06:47:42.349Z,11.32
2023-12-13T06:50:45.696Z,10.18
2023-12-13T06:53:47.859Z,10.55
2023-12-13T06:56:52.600Z,11.90
2023-12-13T06:59:55.123Z,11.10
2023-12-13T07:02:57.146Z,9.30
2023-12-13T07:06:07.742Z,9.93
2023-12-13T07:13:45.900Z,9.33
2023-12-13T07:17:14.192Z,9.38
2023-12-13T07:24:10.636Z,8.98
2023-12-13T07:27:14.925Z,10.23
2023-12-13T07:34:52.297Z,9.60
2023-12-13T07:38:25.998Z,10.18
2023-12-13T07:46:02.040Z,9.93
2023-12-13T07:49:16.971Z,10.93
2023-12-13T07:52:35.167Z,8.63
2023-12-13T07:55:44.603Z,10.00
2023-12-13T07:59:13.965Z,8.93
2023-12-13T08:02:35.944Z,9.35
2023-12-13T08:06:18.311Z,9.70
2023-12-13T08:09:39.228Z,8.60
2023-12-13T08:13:38.645Z,9.98
2023-12-13T08:17:34.604Z,9.30
2023-12-13T08:20:46.552Z,8.15
2023-12-13T08:23:59.842Z,8.83
2023-12-13T08:27:08.189Z,7.43
2023-12-13T08:34:58.162Z,7.97
2023-12-13T08:38:42.798Z,7.47
2023-12-13T08:46:24.401Z,8.05
2023-12-13T08:49:37.537Z,8.55
2023-12-13T08:52:47.738Z,8.38
2023-12-13T08:55:56.181Z,8.35
2023-12-13T08:59:23.042Z,8.77
2023-12-13T09:02:48.620Z,7.50
2023-12-13T09:06:04.523Z,7.25
2023-12-13T09:09:16.425Z,9.05
2023-12-13T09:12:30.484Z,9.52
2023-12-13T09:15:36.520Z,9.10
2023-12-13T09:18:48.634Z,9.65
2023-12-13T09:21:55.158Z,7.93
2023-12-13T09:25:06.932Z,7.60
2023-12-13T09:28:24.544Z,7.68
2023-12-13T09:31:41.121Z,8.50
2023-12-13T09:35:00.914Z,8.13
2023-12-13T09:38:19.479Z,8.23
2023-12-13T09:42:26.830Z,9.00
2023-12-13T09:46:26.557Z,9.85
2023-12-13T09:49:41.623Z,9.53
2023-12-13T09:52:58.744Z,9.98
2023-12-13T10:19:12.022Z,10.15
2023-12-13T10:45:39.310Z,12.15
2023-12-13T10:53:29.307Z,10.90
2023-12-13T11:31:24.236Z,8.23
2023-12-13T11:34:50.876Z,8.57
2023-12-13T11:38:00.425Z,8.65
2023-12-13T11:41:16.635Z,8.85
2023-12-13T11:44:25.151Z,8.07
2023-12-13T11:47:39.446Z,8.93
2023-12-13T11:50:59.179Z,10.40
2023-12-13T11:54:09.505Z,9.52
2023-12-13T11:57:45.013Z,9.20
2023-12-13T12:01:04.003Z,10.10
2023-12-13T12:04:44.068Z,10.20
2023-12-13T12:08:42.438Z,10.88
2023-12-13T12:44:00.097Z,12.37
2023-12-13T12:47:05.412Z,12.30
2023-12-13T12:50:23.701Z,11.45
2023-12-13T12:53:31.938Z,11.48
2023-12-13T12:56:40.661Z,12.45
2023-12-13T12:59:48.901Z,10.83
2023-12-13T13:02:55.709Z,12.93
2023-12-13T13:06:01.976Z,12.40
2023-12-13T13:09:11.181Z,11.90
2023-12-13T13:12:22.071Z,12.75
2023-12-13T13:15:26.543Z,13.10
2023-12-13T13:18:54.203Z,13.05
2023-12-13T13:26:47.264Z,12.60
2023-12-13T13:30:20.309Z,12.57
2023-12-13T13:33:26.759Z,11.93
2023-12-13T13:36:29.372Z,12.23
2023-12-13T13:39:37.158Z,13.00
2023-12-13T13:42:45.514Z,12.95
2023-12-13T13:46:01.695Z,12.85
2023-12-13T13:49:04.791Z,13.40
2023-12-13T13:52:11.073Z,13.90
2023-12-13T13:55:16.080Z,14.23
2023-12-13T13:58:23.484Z,16.58
2023-12-13T14:01:42.715Z,18.80
2023-12-13T14:04:56.057Z,19.20
2023-12-13T14:08:00.311Z,19.35
2023-12-13T14:11:05.522Z,16.77
2023-12-13T14:14:08.647Z,16.75
2023-12-13T14:17:14.465Z,17.05
2023-12-13T14:20:19.156Z,15.50
2023-12-13T14:23:21.911Z,18.33
2023-12-13T14:26:29.088Z,18.55
2023-12-13T14:29:33.459Z,19.13
2023-12-13T14:32:41.416Z,18.25
2023-12-13T14:35:45.057Z,17.57
2023-12-13T14:38:50.942Z,17.67
2023-12-13T14:41:54.894Z,17.85
2023-12-13T14:44:57.905Z,16.83
2023-12-13T14:48:02.888Z,16.10
2023-12-13T14:51:06.068Z,16.93
2023-12-13T14:54:08.923Z,17.05
2023-12-13T14:57:11.690Z,16.05
2023-12-13T15:00:15.893Z,16.42
2023-12-13T15:03:19.124Z,16.38
2023-12-13T15:06:22.899Z,15.43
2023-12-13T15:09:27.265Z,15.90
2023-12-13T15:12:30.544Z,15.88
2023-12-13T15:15:34.334Z,14.82
2023-12-13T15:18:39.431Z,16.05
2023-12-13T15:21:42.640Z,16.43
2023-12-13T15:24:45.415Z,16.75
2023-12-13T15:27:49.617Z,16.40
2023-12-13T15:30:54.044Z,17.48
2023-12-13T15:33:57.040Z,17.20
2023-12-13T15:37:01.807Z,16.07
2023-12-13T15:40:06.051Z,16.15
2023-12-13T15:43:14.807Z,16.65
2023-12-13T15:46:18.111Z,16.95
2023-12-13T15:49:23.893Z,17.58
2023-12-13T15:52:27.704Z,15.23
2023-12-13T15:55:30.479Z,17.83
2023-12-13T15:58:33.189Z,17.33
2023-12-13T16:01:36.025Z,16.88
2023-12-13T16:04:39.424Z,17.70
2023-12-13T16:07:45.103Z,16.73
2023-12-13T16:10:48.689Z,17.38
2023-12-13T16:13:54.314Z,18.20
2023-12-13T16:17:00.644Z,15.52
2023-12-13T16:20:03.922Z,15.70
2023-12-13T16:23:10.455Z,16.00
2023-12-13T16:26:17.409Z,15.20
2023-12-13T16:29:27.901Z,16.00
2023-12-13T16:32:37.008Z,17.58
2023-12-13T16:35:43.108Z,16.63
2023-12-13T16:38:46.187Z,17.27
2023-12-13T16:41:51.316Z,16.70
2023-12-13T16:44:58.282Z,16.95
2023-12-13T16:48:05.562Z,16.73
2023-12-13T16:51:12.626Z,11.80
2023-12-13T16:54:15.581Z,14.30
2023-12-13T16:57:27.985Z,14.05
2023-12-13T17:00:59.262Z,16.02
2023-12-13T17:21:42.522Z,13.77
2023-12-13T17:25:27.016Z,18.30
2023-12-13T17:28:47.873Z,18.60
2023-12-13T17:36:31.097Z,17.02
2023-12-13T17:40:09.688Z,16.83
2023-12-13T17:43:44.109Z,19.05
2023-12-13T17:51:48.224Z,17.15
2023-12-13T17:55:14.351Z,18.30
2023-12-13T17:58:39.350Z,18.60
2023-12-13T18:01:49.657Z,16.50
2023-12-13T18:05:11.010Z,17.20
2023-12-13T18:08:46.382Z,18.70
2023-12-13T18:12:35.395Z,18.48
2023-12-13T18:15:40.562Z,17.98
2023-12-13T18:18:49.956Z,17.40
2023-12-13T18:26:02.324Z,18.67
2023-12-13T18:29:28.540Z,20.15
2023-12-13T18:36:46.827Z,18.58
2023-12-13T18:40:27.329Z,16.93
2023-12-13T18:44:01.898Z,17.25
2023-12-13T18:47:14.294Z,18.20
2023-12-13T18:50:32.859Z,18.00
2023-12-13T18:59:37.408Z,16.47
2023-12-13T19:03:05.034Z,16.80
2023-12-13T19:06:14.748Z,17.48
2023-12-13T19:13:23.712Z,26.05
2023-12-13T19:20:07.987Z,22.30
2023-12-13T19:23:23.607Z,18.38
2023-12-13T19:26:38.912Z,16.67
2023-12-13T19:30:30.488Z,23.40
2023-12-13T19:33:50.549Z,18.87
2023-12-13T19:37:32.550Z,18.75
2023-12-13T19:40:46.128Z,18.15
2023-12-13T19:43:59.832Z,18.48
2023-12-13T19:47:17.637Z,16.60
2023-12-13T19:51:09.101Z,15.77
2023-12-13T19:54:46.363Z,21.00
2023-12-13T19:58:25.957Z,24.40
2023-12-13T20:01:55.959Z,33.47
2023-12-13T20:05:05.861Z,38.40
2023-12-13T20:08:13.181Z,34.60
2023-12-13T20:11:23.070Z,26.50
2023-12-13T20:14:35.307Z,27.52
2023-12-13T20:17:52.065Z,29.27
2023-12-13T20:21:19.796Z,30.70
2023-12-13T20:24:30.653Z,27.73
2023-12-13T20:27:52.808Z,26.42
2023-12-13T20:31:41.998Z,24.10
2023-12-13T20:34:55.589Z,25.45
2023-12-13T20:38:07.763Z,25.27
2023-12-13T20:41:19.907Z,21.70
2023-12-13T20:44:55.880Z,21.88
2023-12-13T20:57:12.266Z,17.95
2023-12-13T21:01:03.846Z,19.07
2023-12-13T21:04:42.190Z,18.45
2023-12-13T21:08:27.770Z,20.50
2023-12-13T21:12:32.307Z,20.00
2023-12-13T21:17:11.298Z,17.52
2023-12-13T21:29:10.920Z,16.60
2023-12-13T21:32:28.744Z,17.58
2023-12-13T21:35:54.895Z,17.95
2023-12-13T21:39:13.947Z,17.20
2023-12-13T21:47:16.470Z,17.15
2023-12-13T21:54:37.320Z,16.05
2023-12-13T22:07:22.535Z,14.10
2023-12-13T22:15:22.482Z,15.85
2023-12-13T22:23:01.991Z,15.20
2023-12-13T22:34:30.444Z,9.30
2023-12-13T22:41:31.993Z,11.25
2023-12-13T22:44:46.964Z,11.40
2023-12-13T22:51:24.066Z,11.80
2023-12-13T22:54:31.943Z,10.87
2023-12-13T22:57:47.212Z,11.60
2023-12-13T23:01:11.046Z,10.82
2023-12-13T23:04:25.082Z,10.05
2023-12-13T23:08:50.979Z,10.05
2023-12-13T23:12:07.637Z,7.37
2023-12-13T23:15:22.252Z,7.32
2023-12-13T23:18:37.838Z,5.55
2023-12-13T23:22:11.444Z,5.40
2023-12-13T23:29:43.599Z,5.30
2023-12-13T23:33:00.378Z,5.63
2023-12-13T23:40:27.007Z,6.13
2023-12-13T23:43:29.308Z,7.20
2023-12-13T23:46:31.523Z,6.70
2023-12-13T23:49:33.732Z,7.47
2023-12-13T23:52:36.703Z,7.57
2023-12-13T23:55:44.631Z,8.25
2023-12-13T23:58:47.299Z,8.43
